sensor_id;sensor_type;location;lat;lon;timestamp;temperature;humidity
69679;DHT22;56915;52.046;4.854;2022-11-23T00:03:41;8.00;99.90
69679;DHT22;56915;52.046;4.854;2022-11-23T00:06:08;8.00;99.90
69679;DHT22;56915;52.046;4.854;2022-11-23T00:08:35;7.90;99.90
69679;DHT22;56915;52.046;4.854;2022-11-23T00:11:01;7.80;99.90
69679;DHT22;56915;52.046;4.854;2022-11-23T00:13:28;7.70;99.90
69679;DHT22;56915;52.046;4.854;2022-11-23T00:15:55;7.60;99.90
69679;DHT22;56915;52.046;4.854;2022-11-23T00:18:22;7.50;99.90
69679;DHT22;56915;52.046;4.854;2022-11-23T00:20:48;7.50;99.90
69679;DHT22;56915;52.046;4.854;2022-11-23T00:23:15;7.50;99.90
69679;DHT22;56915;52.046;4.854;2022-11-23T00:25:45;7.50;99.90
69679;DHT22;56915;52.046;4.854;2022-11-23T00:28:12;7.50;99.90
69679;DHT22;56915;52.046;4.854;2022-11-23T00:30:39;7.50;99.90
69679;DHT22;56915;52.046;4.854;2022-11-23T00:33:05;7.50;99.90
69679;DHT22;56915;52.046;4.854;2022-11-23T00:35:32;7.50;99.90
69679;DHT22;56915;52.046;4.854;2022-11-23T00:37:59;7.50;99.90
69679;DHT22;56915;52.046;4.854;2022-11-23T00:40:26;7.50;99.90
69679;DHT22;56915;52.046;4.854;2022-11-23T00:42:53;7.60;99.90
69679;DHT22;56915;52.046;4.854;2022-11-23T00:45:19;7.60;99.90
69679;DHT22;56915;52.046;4.854;2022-11-23T00:47:48;7.70;99.90
69679;DHT22;56915;52.046;4.854;2022-11-23T00:50:15;7.70;99.90
69679;DHT22;56915;52.046;4.854;2022-11-23T00:52:42;7.70;99.90
69679;DHT22;56915;52.046;4.854;2022-11-23T00:55:09;7.80;99.90
69679;DHT22;56915;52.046;4.854;2022-11-23T00:57:36;7.80;99.90
69679;DHT22;56915;52.046;4.854;2022-11-23T01:00:04;7.80;99.90
69679;DHT22;56915;52.046;4.854;2022-11-23T01:02:34;7.90;99.90
69679;DHT22;56915;52.046;4.854;2022-11-23T01:05:02;7.90;99.90
69679;DHT22;56915;52.046;4.854;2022-11-23T01:07:29;7.90;99.90
69679;DHT22;56915;52.046;4.854;2022-11-23T01:09:56;7.90;99.90
69679;DHT22;56915;52.046;4.854;2022-11-23T01:12:23;7.90;99.90
69679;DHT22;56915;52.046;4.854;2022-11-23T01:14:52;8.00;99.90
69679;DHT22;56915;52.046;4.854;2022-11-23T01:17:19;8.00;99.90
69679;DHT22;56915;52.046;4.854;2022-11-23T01:19:46;8.00;99.90
69679;DHT22;56915;52.046;4.854;2022-11-23T01:22:13;8.00;99.90
69679;DHT22;56915;52.046;4.854;2022-11-23T01:24:39;8.00;99.90
69679;DHT22;56915;52.046;4.854;2022-11-23T01:27:06;8.10;99.90
69679;DHT22;56915;52.046;4.854;2022-11-23T01:29:33;8.00;99.90
69679;DHT22;56915;52.046;4.854;2022-11-23T01:32:00;8.10;99.90
69679;DHT22;56915;52.046;4.854;2022-11-23T01:34:27;8.10;99.90
69679;DHT22;56915;52.046;4.854;2022-11-23T01:36:54;8.10;99.90
69679;DHT22;56915;52.046;4.854;2022-11-23T01:39:20;8.10;99.90
69679;DHT22;56915;52.046;4.854;2022-11-23T01:41:47;8.10;99.90
69679;DHT22;56915;52.046;4.854;2022-11-23T01:44:29;8.10;99.90
69679;DHT22;56915;52.046;4.854;2022-11-23T01:47:07;8.10;99.90
69679;DHT22;56915;52.046;4.854;2022-11-23T01:49:46;8.10;99.90
69679;DHT22;56915;52.046;4.854;2022-11-23T01:52:20;8.10;99.90
69679;DHT22;56915;52.046;4.854;2022-11-23T01:54:49;8.10;99.90
69679;DHT22;56915;52.046;4.854;2022-11-23T01:57:20;8.10;99.90
69679;DHT22;56915;52.046;4.854;2022-11-23T01:59:48;8.10;99.90
69679;DHT22;56915;52.046;4.854;2022-11-23T02:02:17;8.10;99.90
69679;DHT22;56915;52.046;4.854;2022-11-23T02:04:46;8.00;99.90
69679;DHT22;56915;52.046;4.854;2022-11-23T02:07:15;8.00;99.90
69679;DHT22;56915;52.046;4.854;2022-11-23T02:09:42;8.00;99.90
69679;DHT22;56915;52.046;4.854;2022-11-23T02:12:11;8.00;99.90
69679;DHT22;56915;52.046;4.854;2022-11-23T02:14:39;7.90;99.90
69679;DHT22;56915;52.046;4.854;2022-11-23T02:17:07;7.90;99.90
69679;DHT22;56915;52.046;4.854;2022-11-23T02:25:13;7.90;99.90
69679;DHT22;56915;52.046;4.854;2022-11-23T02:27:41;7.90;99.90
69679;DHT22;56915;52.046;4.854;2022-11-23T02:30:12;7.90;99.90
69679;DHT22;56915;52.046;4.854;2022-11-23T02:32:40;7.90;99.90
69679;DHT22;56915;52.046;4.854;2022-11-23T02:35:12;7.90;99.90
69679;DHT22;56915;52.046;4.854;2022-11-23T02:37:40;7.90;99.90
69679;DHT22;56915;52.046;4.854;2022-11-23T02:40:33;7.80;99.90
69679;DHT22;56915;52.046;4.854;2022-11-23T02:43:01;7.80;99.90
69679;DHT22;56915;52.046;4.854;2022-11-23T02:45:52;7.80;99.90
69679;DHT22;56915;52.046;4.854;2022-11-23T02:48:20;7.80;99.90
69679;DHT22;56915;52.046;4.854;2022-11-23T02:50:47;7.80;99.90
69679;DHT22;56915;52.046;4.854;2022-11-23T02:53:13;7.90;99.90
69679;DHT22;56915;52.046;4.854;2022-11-23T02:55:40;7.90;99.90
69679;DHT22;56915;52.046;4.854;2022-11-23T02:58:07;7.90;99.90
69679;DHT22;56915;52.046;4.854;2022-11-23T03:00:35;7.90;99.90
69679;DHT22;56915;52.046;4.854;2022-11-23T03:03:02;7.90;99.90
69679;DHT22;56915;52.046;4.854;2022-11-23T03:05:29;7.90;99.90
69679;DHT22;56915;52.046;4.854;2022-11-23T03:07:56;7.90;99.90
69679;DHT22;56915;52.046;4.854;2022-11-23T03:10:23;8.00;99.90
69679;DHT22;56915;52.046;4.854;2022-11-23T03:12:53;8.00;99.90
69679;DHT22;56915;52.046;4.854;2022-11-23T03:15:21;8.00;99.90
69679;DHT22;56915;52.046;4.854;2022-11-23T03:17:47;8.10;99.90
69679;DHT22;56915;52.046;4.854;2022-11-23T03:20:14;8.10;99.90
69679;DHT22;56915;52.046;4.854;2022-11-23T03:22:41;8.10;99.90
69679;DHT22;56915;52.046;4.854;2022-11-23T03:25:08;8.20;99.90
69679;DHT22;56915;52.046;4.854;2022-11-23T03:27:37;8.20;99.90
69679;DHT22;56915;52.046;4.854;2022-11-23T03:30:05;8.20;99.90
69679;DHT22;56915;52.046;4.854;2022-11-23T03:32:33;8.20;99.90
69679;DHT22;56915;52.046;4.854;2022-11-23T03:35:01;8.20;99.90
69679;DHT22;56915;52.046;4.854;2022-11-23T03:37:28;8.20;99.90
69679;DHT22;56915;52.046;4.854;2022-11-23T03:39:54;8.20;99.90
69679;DHT22;56915;52.046;4.854;2022-11-23T03:42:21;8.20;99.90
69679;DHT22;56915;52.046;4.854;2022-11-23T03:44:48;8.20;99.90
69679;DHT22;56915;52.046;4.854;2022-11-23T03:47:15;8.20;99.90
69679;DHT22;56915;52.046;4.854;2022-11-23T03:49:42;8.20;99.90
69679;DHT22;56915;52.046;4.854;2022-11-23T03:52:08;8.20;99.90
69679;DHT22;56915;52.046;4.854;2022-11-23T03:54:35;8.20;99.90
69679;DHT22;56915;52.046;4.854;2022-11-23T03:57:02;8.20;99.90
69679;DHT22;56915;52.046;4.854;2022-11-23T03:59:29;8.20;99.90
69679;DHT22;56915;52.046;4.854;2022-11-23T04:01:56;8.20;99.90
69679;DHT22;56915;52.046;4.854;2022-11-23T04:04:23;8.30;99.90
69679;DHT22;56915;52.046;4.854;2022-11-23T04:06:49;8.30;99.90
69679;DHT22;56915;52.046;4.854;2022-11-23T04:09:16;8.30;99.90
69679;DHT22;56915;52.046;4.854;2022-11-23T04:11:43;8.40;99.90
69679;DHT22;56915;52.046;4.854;2022-11-23T04:14:09;8.40;99.90
69679;DHT22;56915;52.046;4.854;2022-11-23T04:16:36;8.40;99.90
69679;DHT22;56915;52.046;4.854;2022-11-23T04:19:03;8.50;99.90
69679;DHT22;56915;52.046;4.854;2022-11-23T04:21:30;8.50;99.90
69679;DHT22;56915;52.046;4.854;2022-11-23T04:23:56;8.50;99.90
69679;DHT22;56915;52.046;4.854;2022-11-23T04:26:23;8.50;99.90
69679;DHT22;56915;52.046;4.854;2022-11-23T04:28:50;8.60;99.90
69679;DHT22;56915;52.046;4.854;2022-11-23T04:31:16;8.60;99.90
69679;DHT22;56915;52.046;4.854;2022-11-23T04:33:43;8.70;99.90
69679;DHT22;56915;52.046;4.854;2022-11-23T04:36:10;8.70;99.90
69679;DHT22;56915;52.046;4.854;2022-11-23T04:38:37;8.70;99.90
69679;DHT22;56915;52.046;4.854;2022-11-23T04:41:04;8.60;99.90
69679;DHT22;56915;52.046;4.854;2022-11-23T04:43:30;8.60;99.90
69679;DHT22;56915;52.046;4.854;2022-11-23T04:45:57;8.60;99.90
69679;DHT22;56915;52.046;4.854;2022-11-23T04:48:24;8.50;99.90
69679;DHT22;56915;52.046;4.854;2022-11-23T04:50:50;8.50;99.90
69679;DHT22;56915;52.046;4.854;2022-11-23T04:53:21;8.50;99.90
69679;DHT22;56915;52.046;4.854;2022-11-23T04:55:48;8.50;99.90
69679;DHT22;56915;52.046;4.854;2022-11-23T04:58:14;8.50;99.90
69679;DHT22;56915;52.046;4.854;2022-11-23T05:00:41;8.50;99.90
69679;DHT22;56915;52.046;4.854;2022-11-23T05:03:08;8.50;99.90
69679;DHT22;56915;52.046;4.854;2022-11-23T05:05:39;8.50;99.90
69679;DHT22;56915;52.046;4.854;2022-11-23T05:08:06;8.50;99.90
69679;DHT22;56915;52.046;4.854;2022-11-23T05:10:33;8.40;99.90
69679;DHT22;56915;52.046;4.854;2022-11-23T05:13:00;8.40;99.90
69679;DHT22;56915;52.046;4.854;2022-11-23T05:15:28;8.40;99.90
69679;DHT22;56915;52.046;4.854;2022-11-23T05:18:03;8.30;99.90
69679;DHT22;56915;52.046;4.854;2022-11-23T05:20:33;8.30;99.90
69679;DHT22;56915;52.046;4.854;2022-11-23T05:23:00;8.30;99.90
69679;DHT22;56915;52.046;4.854;2022-11-23T05:25:27;8.30;99.90
69679;DHT22;56915;52.046;4.854;2022-11-23T05:27:54;8.30;99.90
69679;DHT22;56915;52.046;4.854;2022-11-23T05:30:21;8.30;99.90
69679;DHT22;56915;52.046;4.854;2022-11-23T05:32:48;8.30;99.90
69679;DHT22;56915;52.046;4.854;2022-11-23T05:35:14;8.30;99.90
69679;DHT22;56915;52.046;4.854;2022-11-23T05:37:42;8.30;99.90
69679;DHT22;56915;52.046;4.854;2022-11-23T05:40:09;8.30;99.90
69679;DHT22;56915;52.046;4.854;2022-11-23T05:42:37;8.20;99.90
69679;DHT22;56915;52.046;4.854;2022-11-23T05:45:04;8.20;99.90
69679;DHT22;56915;52.046;4.854;2022-11-23T05:47:37;8.10;99.90
69679;DHT22;56915;52.046;4.854;2022-11-23T05:50:04;8.10;99.90
69679;DHT22;56915;52.046;4.854;2022-11-23T05:52:31;8.10;99.90
69679;DHT22;56915;52.046;4.854;2022-11-23T05:54:58;8.10;99.90
69679;DHT22;56915;52.046;4.854;2022-11-23T05:57:25;8.10;99.90
69679;DHT22;56915;52.046;4.854;2022-11-23T05:59:51;8.10;99.90
69679;DHT22;56915;52.046;4.854;2022-11-23T06:02:18;8.10;99.90
69679;DHT22;56915;52.046;4.854;2022-11-23T06:04:45;8.00;99.90
69679;DHT22;56915;52.046;4.854;2022-11-23T06:07:11;8.00;99.90
69679;DHT22;56915;52.046;4.854;2022-11-23T06:09:38;7.90;99.90
69679;DHT22;56915;52.046;4.854;2022-11-23T06:12:05;7.80;99.90
69679;DHT22;56915;52.046;4.854;2022-11-23T06:14:32;7.70;99.90
69679;DHT22;56915;52.046;4.854;2022-11-23T06:16:59;7.70;99.90
69679;DHT22;56915;52.046;4.854;2022-11-23T06:19:26;7.60;99.90
69679;DHT22;56915;52.046;4.854;2022-11-23T06:21:56;7.50;99.90
69679;DHT22;56915;52.046;4.854;2022-11-23T06:24:23;7.50;99.90
69679;DHT22;56915;52.046;4.854;2022-11-23T06:26:51;7.50;99.90
69679;DHT22;56915;52.046;4.854;2022-11-23T06:29:19;7.50;99.90
69679;DHT22;56915;52.046;4.854;2022-11-23T06:31:46;7.50;99.90
69679;DHT22;56915;52.046;4.854;2022-11-23T06:34:13;7.30;99.90
69679;DHT22;56915;52.046;4.854;2022-11-23T06:36:39;7.20;99.90
69679;DHT22;56915;52.046;4.854;2022-11-23T06:39:06;7.10;99.90
69679;DHT22;56915;52.046;4.854;2022-11-23T06:41:33;7.00;99.90
69679;DHT22;56915;52.046;4.854;2022-11-23T06:43:59;6.90;99.90
69679;DHT22;56915;52.046;4.854;2022-11-23T06:46:26;6.80;99.90
69679;DHT22;56915;52.046;4.854;2022-11-23T06:48:53;6.70;99.90
69679;DHT22;56915;52.046;4.854;2022-11-23T06:51:20;6.60;99.90
69679;DHT22;56915;52.046;4.854;2022-11-23T06:53:46;6.50;99.90
69679;DHT22;56915;52.046;4.854;2022-11-23T06:56:13;6.40;99.90
69679;DHT22;56915;52.046;4.854;2022-11-23T06:58:40;6.30;99.90
69679;DHT22;56915;52.046;4.854;2022-11-23T07:01:08;6.20;99.90
69679;DHT22;56915;52.046;4.854;2022-11-23T07:03:35;6.20;99.90
69679;DHT22;56915;52.046;4.854;2022-11-23T07:06:06;6.10;99.90
69679;DHT22;56915;52.046;4.854;2022-11-23T07:08:35;6.10;99.90
69679;DHT22;56915;52.046;4.854;2022-11-23T07:11:03;6.10;99.90
69679;DHT22;56915;52.046;4.854;2022-11-23T07:13:31;6.20;99.90
69679;DHT22;56915;52.046;4.854;2022-11-23T07:15:58;6.20;99.90
69679;DHT22;56915;52.046;4.854;2022-11-23T07:18:25;6.20;99.90
69679;DHT22;56915;52.046;4.854;2022-11-23T07:20:52;6.20;99.90
69679;DHT22;56915;52.046;4.854;2022-11-23T07:23:19;6.30;99.90
69679;DHT22;56915;52.046;4.854;2022-11-23T07:25:45;6.30;99.90
69679;DHT22;56915;52.046;4.854;2022-11-23T07:28:12;6.40;99.90
69679;DHT22;56915;52.046;4.854;2022-11-23T07:30:39;6.50;99.90
69679;DHT22;56915;52.046;4.854;2022-11-23T07:33:08;6.60;99.90
69679;DHT22;56915;52.046;4.854;2022-11-23T07:35:36;6.60;99.90
69679;DHT22;56915;52.046;4.854;2022-11-23T07:38:04;6.70;99.90
69679;DHT22;56915;52.046;4.854;2022-11-23T07:40:37;6.80;99.90
69679;DHT22;56915;52.046;4.854;2022-11-23T07:43:05;6.80;99.90
69679;DHT22;56915;52.046;4.854;2022-11-23T07:45:33;6.90;99.90
69679;DHT22;56915;52.046;4.854;2022-11-23T07:48:02;7.00;99.90
69679;DHT22;56915;52.046;4.854;2022-11-23T07:50:30;7.00;99.90
69679;DHT22;56915;52.046;4.854;2022-11-23T07:52:57;7.00;99.90
69679;DHT22;56915;52.046;4.854;2022-11-23T07:55:24;7.10;99.90
69679;DHT22;56915;52.046;4.854;2022-11-23T07:57:54;7.10;99.90
69679;DHT22;56915;52.046;4.854;2022-11-23T08:00:22;7.20;99.90
69679;DHT22;56915;52.046;4.854;2022-11-23T08:02:49;7.30;99.90
69679;DHT22;56915;52.046;4.854;2022-11-23T08:05:36;7.50;99.90
69679;DHT22;56915;52.046;4.854;2022-11-23T08:08:03;7.60;99.90
69679;DHT22;56915;52.046;4.854;2022-11-23T08:10:30;7.70;99.90
69679;DHT22;56915;52.046;4.854;2022-11-23T08:13:05;7.80;99.90
69679;DHT22;56915;52.046;4.854;2022-11-23T08:15:32;7.90;99.90
69679;DHT22;56915;52.046;4.854;2022-11-23T08:18:01;7.90;99.90
69679;DHT22;56915;52.046;4.854;2022-11-23T08:20:28;8.00;99.90
69679;DHT22;56915;52.046;4.854;2022-11-23T08:22:56;8.00;99.90
69679;DHT22;56915;52.046;4.854;2022-11-23T08:25:27;8.00;99.90
69679;DHT22;56915;52.046;4.854;2022-11-23T08:28:02;8.00;99.90
69679;DHT22;56915;52.046;4.854;2022-11-23T08:30:30;8.10;99.90
69679;DHT22;56915;52.046;4.854;2022-11-23T08:32:57;8.10;99.90
69679;DHT22;56915;52.046;4.854;2022-11-23T08:35:24;8.10;99.90
69679;DHT22;56915;52.046;4.854;2022-11-23T08:37:51;8.20;99.90
69679;DHT22;56915;52.046;4.854;2022-11-23T08:40:18;8.20;99.90
69679;DHT22;56915;52.046;4.854;2022-11-23T08:42:51;8.30;99.90
69679;DHT22;56915;52.046;4.854;2022-11-23T08:45:17;8.40;99.90
69679;DHT22;56915;52.046;4.854;2022-11-23T08:47:50;8.50;99.90
69679;DHT22;56915;52.046;4.854;2022-11-23T08:50:20;8.60;99.90
69679;DHT22;56915;52.046;4.854;2022-11-23T08:52:47;8.70;99.90
69679;DHT22;56915;52.046;4.854;2022-11-23T08:55:14;8.80;99.90
69679;DHT22;56915;52.046;4.854;2022-11-23T08:57:40;8.90;99.90
69679;DHT22;56915;52.046;4.854;2022-11-23T09:00:08;9.00;99.90
69679;DHT22;56915;52.046;4.854;2022-11-23T09:02:34;9.10;99.90
69679;DHT22;56915;52.046;4.854;2022-11-23T09:05:01;9.20;99.90
69679;DHT22;56915;52.046;4.854;2022-11-23T09:07:28;9.20;99.90
69679;DHT22;56915;52.046;4.854;2022-11-23T09:09:55;9.00;99.90
69679;DHT22;56915;52.046;4.854;2022-11-23T09:12:22;8.90;99.90
69679;DHT22;56915;52.046;4.854;2022-11-23T09:14:48;8.90;99.90
69679;DHT22;56915;52.046;4.854;2022-11-23T09:17:15;8.90;99.90
69679;DHT22;56915;52.046;4.854;2022-11-23T09:19:42;8.90;99.90
69679;DHT22;56915;52.046;4.854;2022-11-23T09:22:09;9.00;99.90
69679;DHT22;56915;52.046;4.854;2022-11-23T09:24:35;9.00;99.90
69679;DHT22;56915;52.046;4.854;2022-11-23T09:27:03;9.00;99.90
69679;DHT22;56915;52.046;4.854;2022-11-23T09:29:29;9.00;99.90
69679;DHT22;56915;52.046;4.854;2022-11-23T09:31:56;8.90;99.90
69679;DHT22;56915;52.046;4.854;2022-11-23T09:34:23;8.90;99.90
69679;DHT22;56915;52.046;4.854;2022-11-23T09:36:50;8.90;99.90
69679;DHT22;56915;52.046;4.854;2022-11-23T09:39:51;8.80;99.90
69679;DHT22;56915;52.046;4.854;2022-11-23T09:42:27;8.80;99.90
69679;DHT22;56915;52.046;4.854;2022-11-23T09:48:00;8.70;99.90
69679;DHT22;56915;52.046;4.854;2022-11-23T09:50:53;8.50;99.90
69679;DHT22;56915;52.046;4.854;2022-11-23T09:53:27;8.40;99.90
69679;DHT22;56915;52.046;4.854;2022-11-23T09:55:56;8.20;99.90
69679;DHT22;56915;52.046;4.854;2022-11-23T09:58:29;8.20;99.90
69679;DHT22;56915;52.046;4.854;2022-11-23T10:01:11;8.10;99.90
69679;DHT22;56915;52.046;4.854;2022-11-23T10:03:41;7.90;99.90
69679;DHT22;56915;52.046;4.854;2022-11-23T10:06:23;7.70;99.90
69679;DHT22;56915;52.046;4.854;2022-11-23T10:14:29;7.40;99.90
69679;DHT22;56915;52.046;4.854;2022-11-23T10:17:14;7.40;99.90
69679;DHT22;56915;52.046;4.854;2022-11-23T10:22:37;7.50;99.90
69679;DHT22;56915;52.046;4.854;2022-11-23T10:25:16;7.60;99.90
69679;DHT22;56915;52.046;4.854;2022-11-23T10:27:48;7.70;99.90
69679;DHT22;56915;52.046;4.854;2022-11-23T10:30:17;7.80;99.90
69679;DHT22;56915;52.046;4.854;2022-11-23T10:32:49;7.90;99.90
69679;DHT22;56915;52.046;4.854;2022-11-23T10:35:37;8.00;99.90
69679;DHT22;56915;52.046;4.854;2022-11-23T10:38:17;8.00;99.90
69679;DHT22;56915;52.046;4.854;2022-11-23T10:41:02;8.00;99.90
69679;DHT22;56915;52.046;4.854;2022-11-23T10:43:37;8.20;99.90
69679;DHT22;56915;52.046;4.854;2022-11-23T10:46:28;8.20;99.90
69679;DHT22;56915;52.046;4.854;2022-11-23T10:49:15;8.20;99.90
69679;DHT22;56915;52.046;4.854;2022-11-23T10:51:52;8.20;99.90
69679;DHT22;56915;52.046;4.854;2022-11-23T10:54:31;8.20;99.90
69679;DHT22;56915;52.046;4.854;2022-11-23T10:57:02;8.30;99.90
69679;DHT22;56915;52.046;4.854;2022-11-23T11:00:13;8.40;99.90
69679;DHT22;56915;52.046;4.854;2022-11-23T11:02:45;8.60;99.90
69679;DHT22;56915;52.046;4.854;2022-11-23T11:08:48;8.80;99.90
69679;DHT22;56915;52.046;4.854;2022-11-23T11:11:28;8.90;99.90
69679;DHT22;56915;52.046;4.854;2022-11-23T11:14:14;8.90;99.90
69679;DHT22;56915;52.046;4.854;2022-11-23T11:16:54;8.90;99.90
69679;DHT22;56915;52.046;4.854;2022-11-23T11:19:27;8.90;99.90
69679;DHT22;56915;52.046;4.854;2022-11-23T11:21:56;8.90;99.90
69679;DHT22;56915;52.046;4.854;2022-11-23T11:24:37;8.80;99.90
69679;DHT22;56915;52.046;4.854;2022-11-23T11:27:11;8.80;99.90
69679;DHT22;56915;52.046;4.854;2022-11-23T11:29:48;8.70;99.90
69679;DHT22;56915;52.046;4.854;2022-11-23T11:38:13;8.70;99.90
69679;DHT22;56915;52.046;4.854;2022-11-23T11:40:49;8.70;99.90
69679;DHT22;56915;52.046;4.854;2022-11-23T11:43:33;8.70;99.90
69679;DHT22;56915;52.046;4.854;2022-11-23T11:46:13;8.70;99.90
69679;DHT22;56915;52.046;4.854;2022-11-23T11:49:05;8.80;99.90
69679;DHT22;56915;52.046;4.854;2022-11-23T11:52:08;8.80;99.90
69679;DHT22;56915;52.046;4.854;2022-11-23T11:55:18;8.90;99.90
69679;DHT22;56915;52.046;4.854;2022-11-23T11:57:46;8.90;99.90
69679;DHT22;56915;52.046;4.854;2022-11-23T12:00:17;9.00;99.90
69679;DHT22;56915;52.046;4.854;2022-11-23T12:03:43;9.10;99.90
69679;DHT22;56915;52.046;4.854;2022-11-23T12:05:54;9.20;99.90
69679;DHT22;56915;52.046;4.854;2022-11-23T12:08:48;9.20;99.90
69679;DHT22;56915;52.046;4.854;2022-11-23T12:11:16;9.20;99.90
69679;DHT22;56915;52.046;4.854;2022-11-23T12:13:45;9.20;99.90
69679;DHT22;56915;52.046;4.854;2022-11-23T12:19:11;9.20;99.90
69679;DHT22;56915;52.046;4.854;2022-11-23T12:30:21;9.50;99.90
69679;DHT22;56915;52.046;4.854;2022-11-23T12:38:40;9.60;99.90
69679;DHT22;56915;52.046;4.854;2022-11-23T12:49:32;9.80;99.90
69679;DHT22;56915;52.046;4.854;2022-11-23T12:59:52;9.60;99.90
69679;DHT22;56915;52.046;4.854;2022-11-23T13:02:50;9.50;99.90
69679;DHT22;56915;52.046;4.854;2022-11-23T13:11:29;9.40;99.90
69679;DHT22;56915;52.046;4.854;2022-11-23T13:13:44;9.30;99.90
69679;DHT22;56915;52.046;4.854;2022-11-23T13:16:33;9.30;99.90
69679;DHT22;56915;52.046;4.854;2022-11-23T13:21:53;9.20;99.90
69679;DHT22;56915;52.046;4.854;2022-11-23T13:24:27;9.10;99.90
69679;DHT22;56915;52.046;4.854;2022-11-23T13:40:28;8.70;99.90
69679;DHT22;56915;52.046;4.854;2022-11-23T13:43:23;8.60;99.90
69679;DHT22;56915;52.046;4.854;2022-11-23T13:46:24;8.50;99.90
69679;DHT22;56915;52.046;4.854;2022-11-23T13:48:56;8.40;99.90
69679;DHT22;56915;52.046;4.854;2022-11-23T13:51:30;8.40;99.90
69679;DHT22;56915;52.046;4.854;2022-11-23T13:54:00;8.40;99.90
69679;DHT22;56915;52.046;4.854;2022-11-23T13:56:35;8.40;99.90
69679;DHT22;56915;52.046;4.854;2022-11-23T14:04:37;8.20;99.90
69679;DHT22;56915;52.046;4.854;2022-11-23T14:09:51;8.20;99.90
69679;DHT22;56915;52.046;4.854;2022-11-23T14:15:24;8.20;99.90
69679;DHT22;56915;52.046;4.854;2022-11-23T14:23:49;8.20;99.90
69679;DHT22;56915;52.046;4.854;2022-11-23T14:35:28;8.10;99.90
69679;DHT22;56915;52.046;4.854;2022-11-23T14:43:29;8.00;99.90
69679;DHT22;56915;52.046;4.854;2022-11-23T14:46:02;8.00;99.90
69679;DHT22;56915;52.046;4.854;2022-11-23T14:48:32;8.00;99.90
69679;DHT22;56915;52.046;4.854;2022-11-23T14:51:17;7.90;99.90
69679;DHT22;56915;52.046;4.854;2022-11-23T14:53:47;7.90;99.90
69679;DHT22;56915;52.046;4.854;2022-11-23T14:56:21;7.90;99.90
69679;DHT22;56915;52.046;4.854;2022-11-23T14:58:54;7.90;99.90
69679;DHT22;56915;52.046;4.854;2022-11-23T15:01:24;7.90;99.90
69679;DHT22;56915;52.046;4.854;2022-11-23T15:03:58;8.00;99.90
69679;DHT22;56915;52.046;4.854;2022-11-23T15:06:31;8.00;99.90
69679;DHT22;56915;52.046;4.854;2022-11-23T15:09:06;8.00;99.90
69679;DHT22;56915;52.046;4.854;2022-11-23T15:11:36;8.00;99.90
69679;DHT22;56915;52.046;4.854;2022-11-23T15:14:19;8.00;99.90
69679;DHT22;56915;52.046;4.854;2022-11-23T15:16:46;8.00;99.90
69679;DHT22;56915;52.046;4.854;2022-11-23T15:19:36;8.00;99.90
69679;DHT22;56915;52.046;4.854;2022-11-23T15:22:03;8.00;99.90
69679;DHT22;56915;52.046;4.854;2022-11-23T15:24:30;8.00;99.90
69679;DHT22;56915;52.046;4.854;2022-11-23T15:27:04;8.00;99.90
69679;DHT22;56915;52.046;4.854;2022-11-23T15:29:38;8.00;99.90
69679;DHT22;56915;52.046;4.854;2022-11-23T15:32:28;8.10;99.90
69679;DHT22;56915;52.046;4.854;2022-11-23T15:35:03;8.10;99.90
69679;DHT22;56915;52.046;4.854;2022-11-23T15:37:39;8.10;99.90
69679;DHT22;56915;52.046;4.854;2022-11-23T15:40:12;8.10;99.90
69679;DHT22;56915;52.046;4.854;2022-11-23T15:42:43;8.10;99.90
69679;DHT22;56915;52.046;4.854;2022-11-23T15:45:37;8.10;99.90
69679;DHT22;56915;52.046;4.854;2022-11-23T15:48:13;8.20;99.90
69679;DHT22;56915;52.046;4.854;2022-11-23T15:53:11;8.30;99.90
69679;DHT22;56915;52.046;4.854;2022-11-23T15:55:41;8.40;99.90
69679;DHT22;56915;52.046;4.854;2022-11-23T15:58:12;8.40;99.90
69679;DHT22;56915;52.046;4.854;2022-11-23T16:00:49;8.40;99.90
69679;DHT22;56915;52.046;4.854;2022-11-23T16:03:41;8.50;99.90
69679;DHT22;56915;52.046;4.854;2022-11-23T16:06:16;8.50;99.90
69679;DHT22;56915;52.046;4.854;2022-11-23T16:08:43;8.50;99.90
69679;DHT22;56915;52.046;4.854;2022-11-23T16:11:32;8.60;99.90
69679;DHT22;56915;52.046;4.854;2022-11-23T16:14:19;8.60;99.90
69679;DHT22;56915;52.046;4.854;2022-11-23T16:17:13;8.60;99.90
69679;DHT22;56915;52.046;4.854;2022-11-23T16:19:47;8.60;99.90
69679;DHT22;56915;52.046;4.854;2022-11-23T16:22:32;8.70;99.90
69679;DHT22;56915;52.046;4.854;2022-11-23T16:25:33;8.70;99.90
69679;DHT22;56915;52.046;4.854;2022-11-23T16:28:03;8.70;99.90
69679;DHT22;56915;52.046;4.854;2022-11-23T16:30:41;8.70;99.90
69679;DHT22;56915;52.046;4.854;2022-11-23T16:33:17;8.70;99.90
69679;DHT22;56915;52.046;4.854;2022-11-23T16:35:45;8.60;99.90
69679;DHT22;56915;52.046;4.854;2022-11-23T16:38:12;8.50;99.90
69679;DHT22;56915;52.046;4.854;2022-11-23T16:40:39;8.50;99.90
69679;DHT22;56915;52.046;4.854;2022-11-23T16:43:09;8.50;99.90
69679;DHT22;56915;52.046;4.854;2022-11-23T16:45:43;8.40;99.90
69679;DHT22;56915;52.046;4.854;2022-11-23T16:50:54;8.30;99.90
69679;DHT22;56915;52.046;4.854;2022-11-23T16:53:22;8.20;99.90
69679;DHT22;56915;52.046;4.854;2022-11-23T16:55:52;8.20;99.90
69679;DHT22;56915;52.046;4.854;2022-11-23T16:58:19;8.10;99.90
69679;DHT22;56915;52.046;4.854;2022-11-23T17:00:46;8.00;99.90
69679;DHT22;56915;52.046;4.854;2022-11-23T17:03:20;8.00;99.90
69679;DHT22;56915;52.046;4.854;2022-11-23T17:05:46;7.90;99.90
69679;DHT22;56915;52.046;4.854;2022-11-23T17:08:13;7.90;99.90
69679;DHT22;56915;52.046;4.854;2022-11-23T17:10:47;7.80;99.90
69679;DHT22;56915;52.046;4.854;2022-11-23T17:13:21;7.70;99.90
69679;DHT22;56915;52.046;4.854;2022-11-23T17:15:49;7.70;99.90
69679;DHT22;56915;52.046;4.854;2022-11-23T17:18:17;7.60;99.90
69679;DHT22;56915;52.046;4.854;2022-11-23T17:20:44;7.60;99.90
69679;DHT22;56915;52.046;4.854;2022-11-23T17:23:10;7.50;99.90
69679;DHT22;56915;52.046;4.854;2022-11-23T17:25:38;7.50;99.90
69679;DHT22;56915;52.046;4.854;2022-11-23T17:28:12;7.40;99.90
69679;DHT22;56915;52.046;4.854;2022-11-23T17:30:41;7.40;99.90
69679;DHT22;56915;52.046;4.854;2022-11-23T17:33:10;7.40;99.90
69679;DHT22;56915;52.046;4.854;2022-11-23T17:35:37;7.30;99.90
69679;DHT22;56915;52.046;4.854;2022-11-23T17:38:05;7.30;99.90
69679;DHT22;56915;52.046;4.854;2022-11-23T17:40:36;7.30;99.90
69679;DHT22;56915;52.046;4.854;2022-11-23T17:43:03;7.30;99.90
69679;DHT22;56915;52.046;4.854;2022-11-23T17:45:30;7.30;99.90
69679;DHT22;56915;52.046;4.854;2022-11-23T17:47:57;7.20;99.90
69679;DHT22;56915;52.046;4.854;2022-11-23T17:50:29;7.20;99.90
69679;DHT22;56915;52.046;4.854;2022-11-23T17:52:55;7.20;99.90
69679;DHT22;56915;52.046;4.854;2022-11-23T17:55:22;7.20;99.90
69679;DHT22;56915;52.046;4.854;2022-11-23T17:57:49;7.20;99.90
69679;DHT22;56915;52.046;4.854;2022-11-23T18:00:18;7.20;99.90
69679;DHT22;56915;52.046;4.854;2022-11-23T18:02:45;7.10;99.90
69679;DHT22;56915;52.046;4.854;2022-11-23T18:05:14;7.10;99.90
69679;DHT22;56915;52.046;4.854;2022-11-23T18:07:48;7.10;99.90
69679;DHT22;56915;52.046;4.854;2022-11-23T18:10:15;7.00;99.90